createdAt,value
2023-04-03T00:00:02.503Z,6.18
2023-04-03T00:02:30.271Z,6.07
2023-04-03T00:04:56.692Z,6.88
2023-04-03T00:07:23.149Z,6.05
2023-04-03T00:09:49.540Z,6.05
2023-04-03T00:12:15.982Z,6.18
2023-04-03T00:14:42.643Z,6.03
2023-04-03T00:17:09.514Z,6.68
2023-04-03T00:19:36.333Z,6.88
2023-04-03T00:22:02.789Z,5.70
2023-04-03T00:24:29.083Z,5.47
2023-04-03T00:26:55.404Z,5.30
2023-04-03T00:29:21.761Z,6.43
2023-04-03T00:31:48.056Z,5.57
2023-04-03T00:34:14.413Z,5.47
2023-04-03T00:36:40.789Z,5.25
2023-04-03T00:39:07.452Z,6.07
2023-04-03T00:41:33.794Z,6.07
2023-04-03T00:44:00.129Z,6.75
2023-04-03T00:46:26.639Z,5.47
2023-04-03T00:48:53.549Z,5.53
2023-04-03T00:51:19.899Z,5.78
2023-04-03T00:53:46.234Z,5.22
2023-04-03T00:56:12.603Z,5.00
2023-04-03T00:58:38.992Z,6.50
2023-04-03T01:01:05.922Z,5.43
2023-04-03T01:03:33.096Z,5.75
2023-04-03T01:06:00.565Z,5.03
2023-04-03T01:08:27.098Z,5.55
2023-04-03T01:10:53.542Z,5.07
2023-04-03T01:13:19.904Z,4.35
2023-04-03T01:15:46.644Z,6.07
2023-04-03T01:18:13.006Z,4.68
2023-04-03T01:20:39.636Z,4.65
2023-04-03T01:23:06.460Z,6.38
2023-04-03T01:25:32.838Z,6.28
2023-04-03T01:27:59.480Z,4.72
2023-04-03T01:30:26.077Z,4.28
2023-04-03T01:32:52.615Z,4.63
2023-04-03T01:35:18.972Z,5.90
2023-04-03T01:37:45.263Z,5.82
2023-04-03T01:40:11.625Z,5.63
2023-04-03T01:42:38.185Z,5.32
2023-04-03T01:45:04.594Z,5.07
2023-04-03T01:47:30.935Z,5.15
2023-04-03T01:49:57.417Z,6.45
2023-04-03T01:52:23.963Z,4.82
2023-04-03T01:54:50.330Z,5.78
2023-04-03T01:57:16.859Z,4.78
2023-04-03T01:59:43.425Z,5.82
2023-04-03T02:02:10.087Z,4.45
2023-04-03T02:04:36.500Z,4.53
2023-04-03T02:07:02.967Z,4.72
2023-04-03T02:09:29.558Z,5.35
2023-04-03T02:11:55.918Z,3.90
2023-04-03T02:14:22.292Z,4.57
2023-04-03T02:16:48.724Z,4.55
2023-04-03T02:19:15.270Z,4.50
2023-04-03T02:21:41.875Z,3.47
2023-04-03T02:24:08.679Z,4.68
2023-04-03T02:26:35.268Z,3.90
2023-04-03T02:29:01.669Z,4.93
2023-04-03T02:31:28.015Z,4.30
2023-04-03T02:33:55.295Z,4.70
2023-04-03T02:36:21.649Z,4.25
2023-04-03T02:38:48.031Z,6.13
2023-04-03T02:41:14.604Z,3.92
2023-04-03T02:43:41.034Z,4.22
2023-04-03T02:46:08.025Z,4.47
2023-04-03T02:48:34.750Z,5.05
2023-04-03T02:51:01.228Z,4.65
2023-04-03T02:53:27.673Z,5.88
2023-04-03T02:55:54.202Z,4.78
2023-04-03T02:58:21.109Z,5.18
2023-04-03T03:00:47.627Z,4.75
2023-04-03T03:03:14.777Z,4.72
2023-04-03T03:05:41.096Z,6.18
2023-04-03T03:08:07.400Z,4.47
2023-04-03T03:10:33.847Z,5.28
2023-04-03T03:13:00.180Z,4.00
2023-04-03T03:15:26.611Z,5.78
2023-04-03T03:17:52.973Z,5.55
2023-04-03T03:20:19.424Z,4.82
2023-04-03T03:22:45.905Z,5.53
2023-04-03T03:25:12.306Z,3.22
2023-04-03T03:27:38.667Z,5.82
2023-04-03T03:30:05.054Z,7.10
2023-04-03T03:32:31.784Z,4.80
2023-04-03T03:34:58.169Z,6.03
2023-04-03T03:37:24.486Z,4.03
2023-04-03T03:39:51.041Z,7.57
2023-04-03T03:42:17.565Z,5.65
2023-04-03T03:44:44.173Z,4.07
2023-04-03T03:47:10.511Z,4.65
2023-04-03T03:49:36.830Z,6.32
2023-04-03T03:52:03.334Z,4.60
2023-04-03T03:54:29.633Z,4.65
2023-04-03T03:56:56.048Z,6.07
2023-04-03T03:59:22.565Z,4.35
2023-04-03T04:01:48.916Z,3.70
2023-04-03T04:04:15.405Z,4.22
2023-04-03T04:06:41.800Z,3.85
2023-04-03T04:09:08.121Z,5.03
2023-04-03T04:11:34.635Z,4.68
2023-04-03T04:14:01.021Z,5.45
2023-04-03T04:16:27.418Z,4.07
2023-04-03T04:18:54.005Z,3.95
2023-04-03T04:21:20.478Z,6.40
2023-04-03T04:23:46.771Z,4.35
2023-04-03T04:26:13.257Z,3.25
2023-04-03T04:28:39.612Z,3.63
2023-04-03T04:31:06.398Z,4.80
2023-04-03T04:33:33.057Z,4.47
2023-04-03T04:35:59.670Z,4.22
2023-04-03T04:38:26.397Z,3.13
2023-04-03T04:40:52.702Z,3.28
2023-04-03T04:43:19.566Z,3.53
2023-04-03T04:45:46.041Z,5.07
2023-04-03T04:48:12.610Z,4.25
2023-04-03T04:50:39.028Z,4.03
2023-04-03T04:53:05.298Z,4.15
2023-04-03T04:55:31.625Z,4.72
2023-04-03T04:57:57.974Z,4.85
2023-04-03T05:00:24.430Z,2.95
2023-04-03T05:02:51.094Z,4.85
2023-04-03T05:05:17.531Z,5.10
2023-04-03T05:07:44.010Z,4.57
2023-04-03T05:10:10.352Z,4.55
2023-04-03T05:12:36.671Z,3.35
2023-04-03T05:15:02.998Z,3.47
2023-04-03T05:17:29.654Z,3.83
2023-04-03T05:19:56.051Z,6.35
2023-04-03T05:22:22.498Z,5.25
2023-04-03T05:24:48.958Z,4.55
2023-04-03T05:27:15.390Z,5.40
2023-04-03T05:29:42.599Z,5.28
2023-04-03T05:32:10.126Z,3.67
2023-04-03T05:34:36.503Z,3.55
2023-04-03T05:37:02.815Z,9.07
2023-04-03T05:39:29.410Z,18.65
2023-04-03T05:41:56.139Z,16.42
2023-04-03T05:44:22.481Z,25.73
2023-04-03T05:46:48.864Z,13.32
2023-04-03T05:49:15.556Z,12.38
2023-04-03T05:51:41.848Z,15.07
2023-04-03T05:54:08.191Z,17.90
2023-04-03T05:56:34.606Z,11.63
2023-04-03T05:59:01.024Z,14.77
2023-04-03T06:01:27.391Z,20.27
2023-04-03T06:03:54.014Z,16.95
2023-04-03T06:06:20.538Z,16.25
2023-04-03T06:08:47.024Z,13.20
2023-04-03T06:11:13.382Z,15.68
2023-04-03T06:13:40.036Z,13.85
2023-04-03T06:16:06.562Z,16.10
2023-04-03T06:18:32.947Z,15.30
2023-04-03T06:20:59.490Z,13.07
2023-04-03T06:23:25.936Z,17.45
2023-04-03T06:25:52.426Z,17.83
2023-04-03T06:28:18.777Z,16.13
2023-04-03T06:30:45.211Z,15.65
2023-04-03T06:33:11.815Z,16.33
2023-04-03T06:35:38.335Z,17.08
2023-04-03T06:38:04.754Z,17.80
2023-04-03T06:40:31.190Z,17.38
2023-04-03T06:42:57.510Z,18.15
2023-04-03T06:45:23.870Z,15.32
2023-04-03T06:47:50.272Z,16.33
2023-04-03T06:50:16.663Z,16.52
2023-04-03T06:52:43.222Z,20.95
2023-04-03T06:55:10.199Z,16.15
2023-04-03T06:57:36.683Z,18.45
2023-04-03T07:00:03.027Z,16.30
2023-04-03T07:02:29.625Z,17.23
2023-04-03T07:04:56.207Z,16.13
2023-04-03T07:07:23.047Z,16.85
2023-04-03T07:09:49.366Z,17.55
2023-04-03T07:12:15.785Z,16.95
2023-04-03T07:14:42.307Z,14.63
2023-04-03T07:17:09.196Z,18.83
2023-04-03T07:19:35.749Z,14.27
2023-04-03T07:22:02.118Z,15.30
2023-04-03T07:24:28.791Z,15.18
2023-04-03T07:26:55.239Z,17.73
2023-04-03T07:29:21.709Z,14.52
2023-04-03T07:31:48.112Z,15.30
2023-04-03T07:34:14.926Z,14.10
2023-04-03T07:36:41.326Z,13.75
2023-04-03T07:39:07.722Z,16.80
2023-04-03T07:41:34.084Z,13.32
2023-04-03T07:44:00.855Z,16.30
2023-04-03T07:46:28.111Z,15.85
2023-04-03T07:48:55.272Z,13.48
2023-04-03T07:51:23.427Z,13.65
2023-04-03T07:53:49.805Z,13.30
2023-04-03T07:56:16.515Z,12.77
2023-04-03T07:58:42.801Z,14.07
2023-04-03T08:01:10.215Z,14.60
2023-04-03T08:03:37.147Z,15.35
2023-04-03T08:06:03.716Z,15.68
2023-04-03T08:08:30.158Z,13.60
2023-04-03T08:10:56.478Z,15.65
2023-04-03T08:13:23.099Z,13.93
2023-04-03T08:15:49.913Z,14.35
2023-04-03T08:18:16.286Z,13.13
2023-04-03T08:20:42.937Z,13.38
2023-04-03T08:23:09.302Z,13.60
2023-04-03T08:25:36.188Z,13.20
2023-04-03T08:28:03.590Z,12.10
2023-04-03T08:30:29.911Z,12.63
2023-04-03T08:32:56.350Z,11.05
2023-04-03T08:35:22.834Z,12.50
2023-04-03T08:37:49.103Z,13.93
2023-04-03T08:40:15.524Z,13.60
2023-04-03T08:42:42.821Z,14.55
2023-04-03T08:45:09.394Z,14.27
2023-04-03T08:47:36.701Z,11.85
2023-04-03T08:50:03.356Z,12.55
2023-04-03T08:52:30.125Z,14.65
2023-04-03T08:54:56.388Z,12.60
2023-04-03T08:57:23.212Z,15.40
2023-04-03T08:59:49.631Z,12.07
2023-04-03T09:02:16.016Z,13.13
2023-04-03T09:04:42.492Z,14.77
2023-04-03T09:07:08.890Z,12.80
2023-04-03T09:09:35.261Z,11.65
2023-04-03T09:12:01.611Z,12.80
2023-04-03T09:14:28.124Z,13.50
2023-04-03T09:16:54.480Z,12.02
2023-04-03T09:19:20.930Z,11.25
2023-04-03T09:21:47.353Z,12.65
2023-04-03T09:24:13.756Z,10.50
2023-04-03T09:26:40.687Z,12.35
2023-04-03T09:29:07.722Z,10.25
2023-04-03T09:31:34.312Z,11.05
2023-04-03T09:34:00.823Z,11.10
2023-04-03T09:36:27.510Z,11.32
2023-04-03T09:38:54.569Z,10.38
2023-04-03T09:41:20.990Z,10.48
2023-04-03T09:43:47.351Z,12.20
2023-04-03T09:46:13.723Z,9.48
2023-04-03T09:48:40.106Z,10.65
2023-04-03T09:51:06.580Z,10.82
2023-04-03T09:53:33.567Z,10.55
2023-04-03T09:55:59.974Z,10.27
2023-04-03T09:58:28.110Z,11.70
2023-04-03T10:00:58.358Z,10.90
2023-04-03T10:03:24.790Z,10.60
2023-04-03T10:05:51.185Z,11.63
2023-04-03T10:08:17.555Z,12.73
2023-04-03T10:10:43.923Z,16.08
2023-04-03T10:13:12.208Z,14.15
2023-04-03T10:18:21.668Z,14.40
2023-04-03T10:20:50.673Z,16.77
2023-04-03T10:23:17.357Z,17.98
2023-04-03T10:25:43.827Z,20.70
2023-04-03T10:28:10.141Z,17.08
2023-04-03T10:30:36.849Z,17.58
2023-04-03T10:33:03.873Z,19.38
2023-04-03T10:35:30.718Z,17.55
2023-04-03T10:37:57.020Z,20.13
2023-04-03T10:40:23.401Z,16.30
2023-04-03T10:42:50.096Z,19.58
2023-04-03T10:45:16.702Z,20.13
2023-04-03T10:47:43.117Z,19.23
2023-04-03T10:50:09.752Z,18.95
2023-04-03T10:52:36.121Z,17.90
2023-04-03T10:55:02.625Z,21.65
2023-04-03T10:57:29.338Z,14.55
2023-04-03T10:59:55.699Z,16.15
2023-04-03T11:02:22.238Z,19.25
2023-04-03T11:04:48.839Z,16.83
2023-04-03T11:07:15.142Z,16.88
2023-04-03T11:09:41.534Z,15.45
2023-04-03T11:12:07.953Z,15.05
2023-04-03T11:14:34.482Z,15.02
2023-04-03T11:17:01.182Z,16.02
2023-04-03T11:19:28.199Z,16.92
2023-04-03T11:21:55.141Z,15.30
2023-04-03T11:24:21.536Z,14.07
2023-04-03T11:26:47.916Z,15.50
2023-04-03T11:29:18.036Z,16.27
2023-04-03T11:31:51.349Z,15.07
2023-04-03T11:34:18.116Z,15.95
2023-04-03T11:36:44.580Z,12.82
2023-04-03T11:39:11.386Z,13.80
2023-04-03T11:41:38.009Z,12.93
2023-04-03T11:44:04.454Z,12.48
2023-04-03T11:46:30.952Z,13.48
2023-04-03T11:48:57.353Z,12.55
2023-04-03T11:51:23.987Z,14.73
2023-04-03T11:53:50.314Z,13.40
2023-04-03T11:56:16.681Z,12.98
2023-04-03T11:58:43.004Z,14.20
2023-04-03T12:01:09.288Z,14.07
2023-04-03T12:03:35.674Z,15.63
2023-04-03T12:06:02.268Z,11.77
2023-04-03T12:08:28.652Z,11.85
2023-04-03T12:10:55.241Z,14.35
2023-04-03T12:13:21.816Z,14.50
2023-04-03T12:15:48.175Z,12.88
2023-04-03T12:18:14.620Z,16.38
2023-04-03T12:20:41.795Z,16.50
2023-04-03T12:23:08.167Z,16.85
2023-04-03T12:25:34.815Z,13.20
2023-04-03T12:28:01.325Z,13.70
2023-04-03T12:30:28.003Z,11.23
2023-04-03T12:33:05.689Z,12.63
2023-04-03T12:35:36.893Z,10.30
2023-04-03T12:38:04.017Z,12.85
2023-04-03T12:40:30.310Z,13.85
2023-04-03T12:42:57.330Z,11.73
2023-04-03T12:45:23.642Z,13.73
2023-04-03T12:47:50.171Z,17.55
2023-04-03T12:50:16.519Z,11.65
2023-04-03T12:52:43.286Z,11.35
2023-04-03T12:55:09.877Z,16.23
2023-04-03T12:57:36.878Z,14.70
2023-04-03T13:00:03.326Z,18.80
2023-04-03T13:02:30.475Z,20.55
2023-04-03T13:04:57.146Z,17.20
2023-04-03T13:07:23.758Z,17.30
2023-04-03T13:09:50.562Z,19.30
2023-04-03T13:12:17.218Z,20.05
2023-04-03T13:14:44.053Z,20.20
2023-04-03T13:17:10.367Z,23.23
2023-04-03T13:19:37.059Z,17.27
2023-04-03T13:22:03.460Z,20.45
2023-04-03T13:24:30.073Z,20.27
2023-04-03T13:26:56.477Z,17.48
2023-04-03T13:29:29.853Z,17.35
2023-04-03T13:31:57.232Z,16.95
2023-04-03T13:34:23.665Z,344.08
2023-04-03T13:36:50.098Z,250.95
2023-04-03T13:39:16.606Z,235.55
2023-04-03T13:41:43.056Z,215.32
2023-04-03T13:44:12.511Z,201.27
2023-04-03T13:46:39.202Z,178.53
2023-04-03T13:49:05.781Z,170.00
2023-04-03T13:51:32.399Z,160.02
2023-04-03T13:53:59.192Z,141.55
2023-04-03T13:56:25.495Z,140.60
2023-04-03T13:58:51.983Z,123.13
2023-04-03T14:01:18.537Z,121.78
2023-04-03T14:03:44.966Z,112.53
2023-04-03T14:06:12.096Z,107.30
2023-04-03T14:08:43.271Z,100.15
2023-04-03T14:11:10.357Z,96.20
2023-04-03T14:13:36.637Z,90.57
2023-04-03T14:16:14.999Z,85.68
2023-04-03T14:18:42.220Z,80.30
2023-04-03T14:21:08.623Z,76.07
2023-04-03T14:23:35.020Z,176.88
2023-04-03T14:26:01.527Z,223.63
2023-04-03T14:28:27.936Z,194.27
2023-04-03T14:30:54.359Z,183.98
2023-04-03T14:33:20.700Z,175.77
2023-04-03T14:35:47.035Z,154.23
2023-04-03T14:38:13.494Z,144.88
2023-04-03T14:40:39.997Z,135.38
2023-04-03T14:43:06.765Z,127.80
2023-04-03T14:45:33.114Z,118.22
2023-04-03T14:47:59.625Z,112.45
2023-04-03T14:50:26.146Z,107.50
2023-04-03T14:52:52.552Z,100.38
2023-04-03T14:55:18.998Z,98.20
2023-04-03T14:57:45.647Z,89.47
2023-04-03T15:00:12.040Z,83.95
2023-04-03T15:02:38.870Z,78.03
2023-04-03T15:05:05.663Z,80.13
2023-04-03T15:07:32.099Z,72.20
2023-04-03T15:09:58.494Z,63.22
2023-04-03T15:12:24.865Z,95.70
2023-04-03T15:14:57.414Z,204.80
2023-04-03T15:17:27.367Z,167.38
2023-04-03T15:19:53.857Z,157.10
2023-04-03T15:22:20.320Z,141.45
2023-04-03T15:24:47.030Z,133.02
2023-04-03T15:27:13.420Z,123.20
2023-04-03T15:29:40.420Z,115.18
2023-04-03T15:32:06.880Z,109.63
2023-04-03T15:34:33.276Z,106.75
2023-04-03T15:36:59.660Z,100.38
2023-04-03T15:39:26.051Z,95.53
2023-04-03T15:41:52.433Z,88.97
2023-04-03T15:44:18.851Z,82.50
2023-04-03T15:46:45.248Z,79.05
2023-04-03T15:49:11.790Z,71.93
2023-04-03T15:51:38.448Z,170.10
2023-04-03T15:54:04.893Z,249.82
2023-04-03T15:56:31.217Z,220.60
2023-04-03T15:58:57.868Z,198.38
2023-04-03T16:01:24.461Z,180.20
2023-04-03T16:03:50.892Z,171.57
2023-04-03T16:06:18.189Z,163.25
2023-04-03T16:08:44.490Z,149.00
2023-04-03T16:11:11.346Z,138.80
2023-04-03T16:13:37.955Z,129.13
2023-04-03T16:16:04.576Z,126.10
2023-04-03T16:18:31.195Z,118.63
2023-04-03T16:20:57.980Z,109.45
2023-04-03T16:23:24.324Z,104.80
2023-04-03T16:25:50.618Z,99.70
2023-04-03T16:28:17.089Z,97.45
2023-04-03T16:30:43.470Z,201.70
2023-04-03T16:33:09.838Z,248.48
2023-04-03T16:35:36.460Z,220.45
2023-04-03T16:38:03.060Z,210.10
2023-04-03T16:40:29.677Z,191.23
2023-04-03T16:42:56.274Z,183.20
2023-04-03T16:45:22.578Z,168.73
2023-04-03T16:47:48.995Z,158.55
2023-04-03T16:50:15.682Z,146.52
2023-04-03T16:52:42.382Z,145.85
2023-04-03T16:55:09.144Z,130.65
2023-04-03T16:57:35.778Z,124.75
2023-04-03T17:00:02.128Z,120.22
2023-04-03T17:02:28.676Z,113.88
2023-04-03T17:04:55.037Z,256.55
2023-04-03T17:07:21.675Z,302.45
2023-04-03T17:09:48.276Z,256.52
2023-04-03T17:12:15.878Z,227.52
2023-04-03T17:14:42.252Z,217.95
2023-04-03T17:17:08.810Z,205.27
2023-04-03T17:19:35.746Z,188.68
2023-04-03T17:22:02.053Z,182.73
2023-04-03T17:24:28.442Z,171.23
2023-04-03T17:26:55.240Z,158.50
2023-04-03T17:29:21.647Z,152.60
2023-04-03T17:31:48.160Z,138.02
2023-04-03T17:34:14.644Z,125.70
2023-04-03T17:36:41.728Z,127.30
2023-04-03T17:39:08.355Z,124.25
2023-04-03T17:41:35.285Z,118.40
2023-04-03T17:44:01.663Z,108.90
2023-04-03T17:46:28.110Z,102.65
2023-04-03T17:48:54.618Z,98.13
2023-04-03T17:51:20.972Z,103.28
2023-04-03T17:53:47.308Z,135.18
2023-04-03T17:56:13.893Z,221.93
2023-04-03T17:58:40.402Z,197.93
2023-04-03T18:01:07.260Z,184.63
2023-04-03T18:03:33.590Z,167.68
2023-04-03T18:05:59.958Z,181.52
2023-04-03T18:08:26.311Z,238.30
2023-04-03T18:10:52.890Z,260.90
2023-04-03T18:13:20.209Z,217.88
2023-04-03T18:15:46.672Z,183.57
2023-04-03T18:18:13.138Z,181.75
2023-04-03T18:20:39.590Z,163.90
2023-04-03T18:23:06.174Z,168.35
2023-04-03T18:28:03.849Z,153.63
2023-04-03T18:30:30.168Z,156.60
2023-04-03T18:32:56.537Z,151.65
2023-04-03T18:35:23.114Z,143.77
2023-04-03T18:37:49.991Z,143.15
2023-04-03T18:40:16.494Z,139.05
2023-04-03T18:42:42.885Z,136.77
2023-04-03T18:45:09.576Z,138.50
2023-04-03T18:47:36.258Z,136.30
2023-04-03T18:50:02.941Z,126.30
2023-04-03T18:52:29.372Z,126.15
2023-04-03T18:54:55.716Z,123.75
2023-04-03T18:57:22.166Z,121.05
2023-04-03T18:59:48.554Z,118.85
2023-04-03T19:02:14.982Z,111.32
2023-04-03T19:04:41.515Z,114.38
2023-04-03T19:07:07.875Z,113.53
2023-04-03T19:09:34.266Z,110.38
2023-04-03T19:12:00.770Z,115.00
2023-04-03T19:14:27.115Z,107.68
2023-04-03T19:16:53.574Z,103.47
2023-04-03T19:19:19.962Z,105.15
2023-04-03T19:21:46.266Z,101.03
2023-04-03T19:24:12.638Z,98.13
2023-04-03T19:26:39.173Z,101.47
2023-04-03T19:29:05.802Z,97.15
2023-04-03T19:31:32.474Z,91.70
2023-04-03T19:33:58.847Z,90.22
2023-04-03T19:36:25.394Z,91.30
2023-04-03T19:38:51.870Z,90.03
2023-04-03T19:41:18.236Z,85.10
2023-04-03T19:43:45.035Z,81.57
2023-04-03T19:46:11.511Z,80.80
2023-04-03T19:48:37.922Z,79.18
2023-04-03T19:51:04.339Z,77.88
2023-04-03T19:53:30.814Z,77.72
2023-04-03T19:55:57.172Z,75.38
2023-04-03T19:58:23.642Z,73.07
2023-04-03T20:00:50.089Z,72.00
2023-04-03T20:03:16.606Z,70.63
2023-04-03T20:05:42.942Z,71.90
2023-04-03T20:08:09.437Z,68.32
2023-04-03T20:10:35.826Z,69.22
2023-04-03T20:13:02.186Z,65.25
2023-04-03T20:15:28.823Z,64.43
2023-04-03T20:17:55.533Z,63.63
2023-04-03T20:20:21.906Z,59.83
2023-04-03T20:22:48.321Z,60.53
2023-04-03T20:25:17.491Z,60.38
2023-04-03T20:27:50.425Z,57.78
2023-04-03T20:30:16.882Z,59.67
2023-04-03T20:32:43.326Z,56.55
2023-04-03T20:35:09.694Z,53.45
2023-04-03T20:37:36.099Z,53.22
2023-04-03T20:40:02.943Z,52.38
2023-04-03T20:42:29.297Z,54.38
2023-04-03T20:44:55.630Z,52.80
2023-04-03T20:47:22.239Z,49.75
2023-04-03T20:49:49.460Z,49.00
2023-04-03T20:52:16.055Z,49.60
2023-04-03T20:54:42.682Z,47.10
2023-04-03T20:57:09.279Z,48.53
2023-04-03T20:59:35.692Z,46.35
2023-04-03T21:02:02.287Z,45.35
2023-04-03T21:04:28.650Z,44.35
2023-04-03T21:06:55.674Z,41.85
2023-04-03T21:09:22.073Z,41.47
2023-04-03T21:11:48.402Z,43.20
2023-04-03T21:14:14.940Z,41.13
2023-04-03T21:16:41.452Z,40.53
2023-04-03T21:19:07.836Z,39.50
2023-04-03T21:21:34.641Z,38.85
2023-04-03T21:24:01.605Z,39.15
2023-04-03T21:26:28.124Z,38.85
2023-04-03T21:28:54.640Z,37.60
2023-04-03T21:31:21.366Z,37.78
2023-04-03T21:33:47.923Z,37.42
2023-04-03T21:36:14.413Z,37.55
2023-04-03T21:38:41.190Z,35.25
2023-04-03T21:41:07.661Z,36.00
2023-04-03T21:43:34.260Z,32.25
2023-04-03T21:46:00.714Z,33.50
2023-04-03T21:48:27.082Z,32.50
2023-04-03T21:50:54.484Z,33.13
2023-04-03T21:53:20.934Z,32.28
2023-04-03T21:55:47.650Z,29.02
2023-04-03T21:58:14.032Z,30.38
2023-04-03T22:00:40.674Z,29.92
2023-04-03T22:03:10.293Z,30.45
2023-04-03T22:05:37.734Z,29.73
2023-04-03T22:08:04.114Z,29.70
2023-04-03T22:10:30.503Z,28.20
2023-04-03T22:12:57.219Z,27.75
2023-04-03T22:15:23.605Z,30.00
2023-04-03T22:17:50.107Z,26.27
2023-04-03T22:20:16.552Z,28.00
2023-04-03T22:22:43.431Z,25.83
2023-04-03T22:25:10.080Z,25.05
2023-04-03T22:27:36.549Z,27.60
2023-04-03T22:30:03.082Z,25.42
2023-04-03T22:32:29.686Z,27.33
2023-04-03T22:34:56.040Z,25.35
2023-04-03T22:37:22.362Z,26.63
2023-04-03T22:39:48.817Z,24.60
2023-04-03T22:42:15.737Z,25.67
2023-04-03T22:44:42.220Z,23.33
2023-04-03T22:47:08.852Z,24.73
2023-04-03T22:49:35.592Z,23.63
2023-04-03T22:52:02.045Z,23.23
2023-04-03T22:54:28.626Z,23.40
2023-04-03T22:56:55.161Z,20.67
2023-04-03T22:59:21.772Z,21.52
2023-04-03T23:01:48.465Z,19.73
2023-04-03T23:04:14.975Z,22.35
2023-04-03T23:06:41.346Z,19.80
2023-04-03T23:09:07.870Z,19.73
2023-04-03T23:11:34.355Z,21.27
2023-04-03T23:14:01.010Z,20.70
2023-04-03T23:16:27.392Z,18.40
2023-04-03T23:18:53.778Z,19.08
2023-04-03T23:21:20.291Z,19.92
2023-04-03T23:23:46.881Z,19.50
2023-04-03T23:26:13.366Z,19.33
2023-04-03T23:28:39.793Z,17.60
2023-04-03T23:31:06.368Z,18.45
2023-04-03T23:33:32.958Z,19.58
2023-04-03T23:35:59.398Z,18.17
2023-04-03T23:38:25.796Z,18.02
2023-04-03T23:40:52.560Z,17.90
2023-04-03T23:43:19.082Z,18.35
2023-04-03T23:45:45.504Z,17.20
2023-04-03T23:48:11.909Z,15.77
2023-04-03T23:50:38.511Z,15.05
2023-04-03T23:53:05.094Z,15.80
2023-04-03T23:55:31.746Z,16.10
2023-04-03T23:57:58.166Z,16.42
